sensor_id;sensor_type;location;lat;lon;timestamp;pressure;altitude;pressure_sealevel;temperature;humidity
42169;BME280;27838;43.858;25.974;2024-03-23T00:54:34;101198.28;;;11.84;42.13
42169;BME280;27838;43.858;25.974;2024-03-23T00:56:59;101200.00;;;11.79;42.08
42169;BME280;27838;43.858;25.974;2024-03-23T00:59:26;101197.38;;;11.71;42.46
42169;BME280;27838;43.858;25.974;2024-03-23T01:01:54;101199.13;;;11.76;42.31
42169;BME280;27838;43.858;25.974;2024-03-23T01:04:20;101194.78;;;11.75;42.35
42169;BME280;27838;43.858;25.974;2024-03-23T01:06:46;101200.00;;;11.73;42.50
42169;BME280;27838;43.858;25.974;2024-03-23T01:09:13;101189.53;;;11.64;42.45
42169;BME280;27838;43.858;25.974;2024-03-23T01:11:39;101189.47;;;11.55;42.80
42169;BME280;27838;43.858;25.974;2024-03-23T01:14:06;101194.69;;;11.48;42.86
42169;BME280;27838;43.858;25.974;2024-03-23T01:16:32;101193.81;;;11.45;42.98
42169;BME280;27838;43.858;25.974;2024-03-23T01:18:59;101187.72;;;11.41;43.00
42169;BME280;27838;43.858;25.974;2024-03-23T01:21:24;101199.00;;;11.40;43.36
42169;BME280;27838;43.858;25.974;2024-03-23T01:23:51;101196.34;;;11.36;43.38
42169;BME280;27838;43.858;25.974;2024-03-23T01:26:17;101192.88;;;11.29;43.49
42169;BME280;27838;43.858;25.974;2024-03-23T01:28:43;101187.59;;;11.18;43.44
42169;BME280;27838;43.858;25.974;2024-03-23T01:31:09;101204.13;;;11.22;43.50
42169;BME280;27838;43.858;25.974;2024-03-23T01:33:36;101199.75;;;11.14;43.58
42169;BME280;27838;43.858;25.974;2024-03-23T01:36:02;101199.69;;;11.05;43.67
42169;BME280;27838;43.858;25.974;2024-03-23T01:38:29;101194.41;;;10.93;43.76
42169;BME280;27838;43.858;25.974;2024-03-23T01:40:57;101191.78;;;10.91;43.69
42169;BME280;27838;43.858;25.974;2024-03-23T01:43:24;101196.16;;;10.92;44.05
42169;BME280;27838;43.858;25.974;2024-03-23T01:45:50;101192.63;;;10.86;43.93
42169;BME280;27838;43.858;25.974;2024-03-23T01:48:20;101190.91;;;10.88;44.05
42169;BME280;27838;43.858;25.974;2024-03-23T01:50:46;101191.75;;;10.82;44.36
42169;BME280;27838;43.858;25.974;2024-03-23T01:53:14;101190.81;;;10.75;44.42
42169;BME280;27838;43.858;25.974;2024-03-23T01:55:43;101186.50;;;10.77;44.14
42169;BME280;27838;43.858;25.974;2024-03-23T01:58:09;101176.91;;;10.73;44.25
42169;BME280;27838;43.858;25.974;2024-03-23T02:00:36;101179.53;;;10.75;44.43
42169;BME280;27838;43.858;25.974;2024-03-23T02:03:03;101185.56;;;10.68;44.47
42169;BME280;27838;43.858;25.974;2024-03-23T02:05:47;101177.69;;;10.62;44.66
42169;BME280;27838;43.858;25.974;2024-03-23T02:08:14;101179.41;;;10.58;44.71
42169;BME280;27838;43.858;25.974;2024-03-23T02:10:39;101177.63;;;10.52;44.50
42169;BME280;27838;43.858;25.974;2024-03-23T02:13:07;101180.19;;;10.48;45.05
42169;BME280;27838;43.858;25.974;2024-03-23T02:15:33;101175.88;;;10.47;45.17
42169;BME280;27838;43.858;25.974;2024-03-23T02:18:00;101177.59;;;10.49;44.96
42169;BME280;27838;43.858;25.974;2024-03-23T02:20:25;101179.38;;;10.52;44.75
42169;BME280;27838;43.858;25.974;2024-03-23T02:22:53;101175.91;;;10.54;45.08
42169;BME280;27838;43.858;25.974;2024-03-23T02:25:19;101175.91;;;10.54;44.95
42169;BME280;27838;43.858;25.974;2024-03-23T02:27:45;101182.00;;;10.58;45.01
42169;BME280;27838;43.858;25.974;2024-03-23T02:30:11;101180.28;;;10.60;44.94
42169;BME280;27838;43.858;25.974;2024-03-23T02:32:38;101182.94;;;10.63;45.21
42169;BME280;27838;43.858;25.974;2024-03-23T02:35:04;101186.41;;;10.65;45.18
42169;BME280;27838;43.858;25.974;2024-03-23T02:37:30;101186.44;;;10.68;45.27
42169;BME280;27838;43.858;25.974;2024-03-23T02:39:58;101186.44;;;10.68;45.08
42169;BME280;27838;43.858;25.974;2024-03-23T02:42:26;101182.06;;;10.63;45.09
42169;BME280;27838;43.858;25.974;2024-03-23T02:44:52;101183.78;;;10.62;45.09
42169;BME280;27838;43.858;25.974;2024-03-23T02:47:18;101178.56;;;10.62;45.23
42169;BME280;27838;43.858;25.974;2024-03-23T02:49:44;101180.31;;;10.63;45.24
42169;BME280;27838;43.858;25.974;2024-03-23T02:52:11;101174.22;;;10.61;45.04
42169;BME280;27838;43.858;25.974;2024-03-23T02:54:36;101182.91;;;10.62;44.88
42169;BME280;27838;43.858;25.974;2024-03-23T02:57:03;101175.94;;;10.61;45.02
42169;BME280;27838;43.858;25.974;2024-03-23T02:59:30;101177.66;;;10.58;44.92
42169;BME280;27838;43.858;25.974;2024-03-23T03:01:56;101172.47;;;10.60;44.99
42169;BME280;27838;43.858;25.974;2024-03-23T03:04:22;101173.34;;;10.59;44.79
42169;BME280;27838;43.858;25.974;2024-03-23T03:06:49;101169.81;;;10.57;44.65
42169;BME280;27838;43.858;25.974;2024-03-23T03:09:15;101172.44;;;10.55;44.54
42169;BME280;27838;43.858;25.974;2024-03-23T03:11:41;101173.28;;;10.53;44.30
42169;BME280;27838;43.858;25.974;2024-03-23T03:14:07;101172.38;;;10.48;44.42
42169;BME280;27838;43.858;25.974;2024-03-23T03:16:34;101176.72;;;10.46;44.44
42169;BME280;27838;43.858;25.974;2024-03-23T03:18:59;101174.03;;;10.39;44.52
42169;BME280;27838;43.858;25.974;2024-03-23T03:21:26;101174.84;;;10.32;44.85
42169;BME280;27838;43.858;25.974;2024-03-23T03:23:52;101180.06;;;10.32;45.02
42169;BME280;27838;43.858;25.974;2024-03-23T03:26:21;101178.28;;;10.28;44.75
42169;BME280;27838;43.858;25.974;2024-03-23T03:28:47;101180.84;;;10.25;45.13
42169;BME280;27838;43.858;25.974;2024-03-23T03:31:17;101173.88;;;10.21;45.06
42169;BME280;27838;43.858;25.974;2024-03-23T03:33:44;101169.50;;;10.20;45.27
42169;BME280;27838;43.858;25.974;2024-03-23T03:36:11;101166.91;;;10.20;45.22
42169;BME280;27838;43.858;25.974;2024-03-23T03:38:36;101166.91;;;10.20;45.02
42169;BME280;27838;43.858;25.974;2024-03-23T03:41:04;101167.78;;;10.17;45.26
42169;BME280;27838;43.858;25.974;2024-03-23T03:43:31;101166.03;;;10.18;45.15
42169;BME280;27838;43.858;25.974;2024-03-23T03:45:59;101165.19;;;10.19;45.34
42169;BME280;27838;43.858;25.974;2024-03-23T03:48:25;101160.81;;;10.18;44.89
42169;BME280;27838;43.858;25.974;2024-03-23T03:50:52;101158.22;;;10.18;44.89
42169;BME280;27838;43.858;25.974;2024-03-23T03:53:19;101159.91;;;10.14;45.66
42169;BME280;27838;43.858;25.974;2024-03-23T03:55:46;101156.44;;;10.14;45.27
42169;BME280;27838;43.858;25.974;2024-03-23T03:58:12;101160.78;;;10.15;45.03
42169;BME280;27838;43.858;25.974;2024-03-23T04:00:38;101157.28;;;10.08;44.96
42169;BME280;27838;43.858;25.974;2024-03-23T04:03:04;101158.19;;;10.12;45.08
42169;BME280;27838;43.858;25.974;2024-03-23T04:05:31;101159.03;;;10.11;45.01
42169;BME280;27838;43.858;25.974;2024-03-23T04:07:57;101160.75;;;10.09;45.14
42169;BME280;27838;43.858;25.974;2024-03-23T04:10:24;101155.56;;;10.10;45.19
42169;BME280;27838;43.858;25.974;2024-03-23T04:12:50;101148.50;;;9.98;45.39
42169;BME280;27838;43.858;25.974;2024-03-23T04:15:17;101151.00;;;9.88;45.75
42169;BME280;27838;43.858;25.974;2024-03-23T04:17:42;101150.94;;;9.81;46.12
42169;BME280;27838;43.858;25.974;2024-03-23T04:20:09;101153.50;;;9.80;46.04
42169;BME280;27838;43.858;25.974;2024-03-23T04:22:39;101151.88;;;9.88;45.97
42169;BME280;27838;43.858;25.974;2024-03-23T04:25:06;101151.81;;;9.85;46.04
42169;BME280;27838;43.858;25.974;2024-03-23T04:27:35;101153.66;;;9.91;45.45
42169;BME280;27838;43.858;25.974;2024-03-23T04:30:03;101146.91;;;10.16;45.04
42169;BME280;27838;43.858;25.974;2024-03-23T04:32:30;101155.09;;;10.62;44.23
42169;BME280;27838;43.858;25.974;2024-03-23T04:34:56;101154.63;;;11.37;42.95
42169;BME280;27838;43.858;25.974;2024-03-23T04:37:22;101150.44;;;12.05;41.38
42169;BME280;27838;43.858;25.974;2024-03-23T04:39:49;101153.06;;;12.41;40.42
42169;BME280;27838;43.858;25.974;2024-03-23T04:42:16;101153.91;;;12.49;40.21
42169;BME280;27838;43.858;25.974;2024-03-23T04:44:42;101154.81;;;12.46;40.19
42169;BME280;27838;43.858;25.974;2024-03-23T04:47:08;101151.34;;;12.32;40.69
42169;BME280;27838;43.858;25.974;2024-03-23T04:49:35;101159.19;;;12.21;40.89
42169;BME280;27838;43.858;25.974;2024-03-23T04:52:04;101156.56;;;12.15;41.06
42169;BME280;27838;43.858;25.974;2024-03-23T04:54:31;101154.81;;;12.16;40.88
42169;BME280;27838;43.858;25.974;2024-03-23T04:56:58;101152.19;;;12.16;40.54
42169;BME280;27838;43.858;25.974;2024-03-23T04:59:25;101153.94;;;12.20;40.47
42169;BME280;27838;43.858;25.974;2024-03-23T05:01:51;101158.31;;;12.25;40.51
42169;BME280;27838;43.858;25.974;2024-03-23T05:04:18;101160.91;;;12.32;40.15
42169;BME280;27838;43.858;25.974;2024-03-23T05:06:43;101153.06;;;12.33;40.24
42169;BME280;27838;43.858;25.974;2024-03-23T05:09:10;101149.56;;;12.39;39.99
42169;BME280;27838;43.858;25.974;2024-03-23T05:11:40;101148.72;;;12.44;39.80
42169;BME280;27838;43.858;25.974;2024-03-23T05:14:07;101158.28;;;12.50;39.80
42169;BME280;27838;43.858;25.974;2024-03-23T05:16:33;101151.31;;;12.55;39.81
42169;BME280;27838;43.858;25.974;2024-03-23T05:19:00;101155.66;;;12.59;39.63
42169;BME280;27838;43.858;25.974;2024-03-23T05:21:26;101156.50;;;12.61;39.53
42169;BME280;27838;43.858;25.974;2024-03-23T05:23:54;101149.53;;;12.66;39.14
42169;BME280;27838;43.858;25.974;2024-03-23T05:26:22;101158.25;;;12.56;39.11
42169;BME280;27838;43.858;25.974;2024-03-23T05:28:49;101160.88;;;12.56;39.31
42169;BME280;27838;43.858;25.974;2024-03-23T05:31:29;101160.00;;;12.57;39.29
42169;BME280;27838;43.858;25.974;2024-03-23T05:33:56;101156.53;;;12.58;39.36
42169;BME280;27838;43.858;25.974;2024-03-23T05:36:21;101153.91;;;12.66;39.51
42169;BME280;27838;43.858;25.974;2024-03-23T05:38:49;101158.25;;;12.75;39.16
42169;BME280;27838;43.858;25.974;2024-03-23T05:41:14;101150.38;;;12.82;39.58
42169;BME280;27838;43.858;25.974;2024-03-23T05:43:41;101157.31;;;12.97;39.22
42169;BME280;27838;43.858;25.974;2024-03-23T05:46:07;101156.41;;;13.04;39.23
42169;BME280;27838;43.858;25.974;2024-03-23T05:48:34;101149.41;;;13.16;39.04
42169;BME280;27838;43.858;25.974;2024-03-23T05:51:00;101156.31;;;13.26;38.73
42169;BME280;27838;43.858;25.974;2024-03-23T05:53:27;101151.97;;;13.34;38.38
42169;BME280;27838;43.858;25.974;2024-03-23T05:56:02;101148.44;;;13.40;38.24
42169;BME280;27838;43.858;25.974;2024-03-23T05:58:30;101130.16;;;13.38;38.24
42169;BME280;27838;43.858;25.974;2024-03-23T06:01:00;101149.28;;;13.51;38.28
42169;BME280;27838;43.858;25.974;2024-03-23T06:03:28;101143.13;;;13.57;38.17
42169;BME280;27838;43.858;25.974;2024-03-23T06:05:54;101148.34;;;13.63;37.79
42169;BME280;27838;43.858;25.974;2024-03-23T06:08:22;101140.50;;;13.63;37.78
42169;BME280;27838;43.858;25.974;2024-03-23T06:10:48;101151.81;;;13.67;38.08
42169;BME280;27838;43.858;25.974;2024-03-23T06:13:15;101146.53;;;13.74;37.97
42169;BME280;27838;43.858;25.974;2024-03-23T06:15:42;101144.72;;;13.83;37.80
42169;BME280;27838;43.858;25.974;2024-03-23T06:18:08;101148.13;;;13.92;38.41
42169;BME280;27838;43.858;25.974;2024-03-23T06:20:35;101152.44;;;14.03;37.95
42169;BME280;27838;43.858;25.974;2024-03-23T06:23:01;101154.13;;;14.11;37.81
42169;BME280;27838;43.858;25.974;2024-03-23T06:25:28;101154.09;;;14.18;37.06
42169;BME280;27838;43.858;25.974;2024-03-23T06:27:54;101151.34;;;14.30;37.44
42169;BME280;27838;43.858;25.974;2024-03-23T06:30:21;101151.28;;;14.39;37.02
42169;BME280;27838;43.858;25.974;2024-03-23T06:32:47;101141.59;;;14.47;37.19
42169;BME280;27838;43.858;25.974;2024-03-23T06:35:14;101148.50;;;14.58;37.08
42169;BME280;27838;43.858;25.974;2024-03-23T06:37:39;101142.22;;;14.72;37.29
42169;BME280;27838;43.858;25.974;2024-03-23T06:40:07;101142.16;;;14.80;36.68
42169;BME280;27838;43.858;25.974;2024-03-23T06:42:35;101144.69;;;14.89;36.86
42169;BME280;27838;43.858;25.974;2024-03-23T06:45:02;101135.03;;;14.91;36.79
42169;BME280;27838;43.858;25.974;2024-03-23T06:47:30;101135.00;;;14.96;36.89
42169;BME280;27838;43.858;25.974;2024-03-23T06:49:57;101134.06;;;15.00;36.56
42169;BME280;27838;43.858;25.974;2024-03-23T06:52:23;101138.34;;;15.07;36.57
42169;BME280;27838;43.858;25.974;2024-03-23T06:54:49;101137.44;;;15.12;36.86
42169;BME280;27838;43.858;25.974;2024-03-23T06:57:15;101132.91;;;15.21;36.56
42169;BME280;27838;43.858;25.974;2024-03-23T06:59:42;101134.50;;;15.35;36.60
42169;BME280;27838;43.858;25.974;2024-03-23T07:02:08;101129.13;;;15.44;36.65
42169;BME280;27838;43.858;25.974;2024-03-23T07:04:36;101128.19;;;15.48;36.15
42169;BME280;27838;43.858;25.974;2024-03-23T07:07:02;101132.56;;;15.47;36.33
42169;BME280;27838;43.858;25.974;2024-03-23T07:09:29;101123.84;;;15.47;36.16
42169;BME280;27838;43.858;25.974;2024-03-23T07:11:56;101125.53;;;15.49;36.72
42169;BME280;27838;43.858;25.974;2024-03-23T07:14:23;101119.31;;;15.57;36.49
42169;BME280;27838;43.858;25.974;2024-03-23T07:16:49;101121.88;;;15.60;36.70
42169;BME280;27838;43.858;25.974;2024-03-23T07:19:17;101116.59;;;15.64;36.43
42169;BME280;27838;43.858;25.974;2024-03-23T07:21:43;101116.47;;;15.71;36.70
42169;BME280;27838;43.858;25.974;2024-03-23T07:24:11;101120.00;;;15.70;37.40
42169;BME280;27838;43.858;25.974;2024-03-23T07:26:38;101116.44;;;15.74;37.67
42169;BME280;27838;43.858;25.974;2024-03-23T07:29:04;101113.81;;;15.77;37.37
42169;BME280;27838;43.858;25.974;2024-03-23T07:31:31;101109.34;;;15.82;37.37
42169;BME280;27838;43.858;25.974;2024-03-23T07:33:57;101102.28;;;15.85;37.26
42169;BME280;27838;43.858;25.974;2024-03-23T07:36:23;101106.59;;;15.88;37.37
42169;BME280;27838;43.858;25.974;2024-03-23T07:38:50;101108.31;;;15.92;37.77
42169;BME280;27838;43.858;25.974;2024-03-23T07:41:18;101107.38;;;15.95;37.22
42169;BME280;27838;43.858;25.974;2024-03-23T07:43:45;101107.28;;;16.01;37.96
42169;BME280;27838;43.858;25.974;2024-03-23T07:46:12;101102.72;;;16.11;37.45
42169;BME280;27838;43.858;25.974;2024-03-23T07:48:38;101113.94;;;16.22;37.14
42169;BME280;27838;43.858;25.974;2024-03-23T07:51:15;101108.72;;;16.20;36.64
42169;BME280;27838;43.858;25.974;2024-03-23T07:53:43;101110.53;;;16.17;36.22
42169;BME280;27838;43.858;25.974;2024-03-23T07:56:10;101099.06;;;16.21;36.47
42169;BME280;27838;43.858;25.974;2024-03-23T07:58:36;101102.41;;;16.31;36.20
42169;BME280;27838;43.858;25.974;2024-03-23T08:01:11;101100.53;;;16.37;36.19
42169;BME280;27838;43.858;25.974;2024-03-23T08:03:38;101088.09;;;16.46;36.08
42169;BME280;27838;43.858;25.974;2024-03-23T08:08:42;101089.25;;;16.77;35.42
42169;BME280;27838;43.858;25.974;2024-03-23T08:11:09;101093.34;;;16.94;35.15
42169;BME280;27838;43.858;25.974;2024-03-23T08:13:37;101087.81;;;17.06;35.48
42169;BME280;27838;43.858;25.974;2024-03-23T08:16:04;101084.88;;;17.20;34.87
42169;BME280;27838;43.858;25.974;2024-03-23T08:18:30;101087.19;;;17.35;34.73
42169;BME280;27838;43.858;25.974;2024-03-23T08:21:00;101077.97;;;17.53;34.99
42169;BME280;27838;43.858;25.974;2024-03-23T08:23:36;101079.25;;;17.74;34.37
42169;BME280;27838;43.858;25.974;2024-03-23T08:26:11;101084.25;;;17.85;33.87
42169;BME280;27838;43.858;25.974;2024-03-23T08:28:37;101079.75;;;17.90;34.16
42169;BME280;27838;43.858;25.974;2024-03-23T08:31:06;101082.13;;;18.01;33.86
42169;BME280;27838;43.858;25.974;2024-03-23T08:33:32;101074.91;;;18.09;33.31
42169;BME280;27838;43.858;25.974;2024-03-23T08:36:04;101073.00;;;18.15;33.26
42169;BME280;27838;43.858;25.974;2024-03-23T08:38:31;101078.13;;;18.21;33.35
42169;BME280;27838;43.858;25.974;2024-03-23T08:41:02;101079.53;;;18.34;32.83
42169;BME280;27838;43.858;25.974;2024-03-23T08:43:29;101073.75;;;18.53;31.92
42169;BME280;27838;43.858;25.974;2024-03-23T08:46:12;101065.28;;;18.73;31.52
42169;BME280;27838;43.858;25.974;2024-03-23T08:48:49;101070.16;;;18.88;31.27
42169;BME280;27838;43.858;25.974;2024-03-23T08:51:17;101061.03;;;18.98;32.02
42169;BME280;27838;43.858;25.974;2024-03-23T08:53:43;101069.63;;;19.07;31.81
42169;BME280;27838;43.858;25.974;2024-03-23T08:56:11;101066.69;;;19.16;30.75
42169;BME280;27838;43.858;25.974;2024-03-23T08:58:37;101054.34;;;19.16;30.38
42169;BME280;27838;43.858;25.974;2024-03-23T09:01:09;101058.31;;;19.31;30.95
42169;BME280;27838;43.858;25.974;2024-03-23T09:03:36;101054.72;;;19.32;30.84
42169;BME280;27838;43.858;25.974;2024-03-23T09:06:11;101053.41;;;19.47;31.01
42169;BME280;27838;43.858;25.974;2024-03-23T09:08:37;101045.19;;;19.55;30.94
42169;BME280;27838;43.858;25.974;2024-03-23T09:11:05;101044.41;;;19.53;30.85
42169;BME280;27838;43.858;25.974;2024-03-23T09:13:33;101039.72;;;19.61;30.78
42169;BME280;27838;43.858;25.974;2024-03-23T09:16:00;101039.63;;;19.64;30.68
42169;BME280;27838;43.858;25.974;2024-03-23T09:18:26;101028.78;;;19.72;29.87
42169;BME280;27838;43.858;25.974;2024-03-23T09:20:52;101028.38;;;19.86;30.29
42169;BME280;27838;43.858;25.974;2024-03-23T09:23:20;101032.22;;;20.02;29.79
42169;BME280;27838;43.858;25.974;2024-03-23T09:25:47;101016.22;;;20.05;29.02
42169;BME280;27838;43.858;25.974;2024-03-23T09:28:13;101017.75;;;20.12;28.80
42169;BME280;27838;43.858;25.974;2024-03-23T09:30:39;101004.97;;;20.25;28.03
42169;BME280;27838;43.858;25.974;2024-03-23T09:33:11;101012.50;;;20.36;27.62
42169;BME280;27838;43.858;25.974;2024-03-23T09:35:42;101010.56;;;20.41;27.04
42169;BME280;27838;43.858;25.974;2024-03-23T09:38:10;101004.91;;;20.50;27.52
42169;BME280;27838;43.858;25.974;2024-03-23T09:40:45;101005.50;;;20.59;26.80
42169;BME280;27838;43.858;25.974;2024-03-23T09:43:14;100995.38;;;20.70;26.99
42169;BME280;27838;43.858;25.974;2024-03-23T09:45:41;100983.47;;;20.82;26.07
42169;BME280;27838;43.858;25.974;2024-03-23T09:48:11;100987.28;;;20.97;26.15
42169;BME280;27838;43.858;25.974;2024-03-23T09:50:39;100975.94;;;20.93;25.65
42169;BME280;27838;43.858;25.974;2024-03-23T09:53:09;100974.78;;;21.00;25.50
42169;BME280;27838;43.858;25.974;2024-03-23T09:55:36;100974.06;;;21.19;25.40
42169;BME280;27838;43.858;25.974;2024-03-23T09:58:04;100972.03;;;21.25;25.54
42169;BME280;27838;43.858;25.974;2024-03-23T10:00:35;100971.72;;;21.33;25.25
42169;BME280;27838;43.858;25.974;2024-03-23T10:03:01;100955.44;;;21.42;25.27
42169;BME280;27838;43.858;25.974;2024-03-23T10:05:29;100965.22;;;21.62;24.32
42169;BME280;27838;43.858;25.974;2024-03-23T10:07:56;100953.50;;;21.68;24.71
42169;BME280;27838;43.858;25.974;2024-03-23T10:10:25;100950.03;;;21.66;24.82
42169;BME280;27838;43.858;25.974;2024-03-23T10:12:51;100943.00;;;21.65;24.72
42169;BME280;27838;43.858;25.974;2024-03-23T10:15:25;100938.47;;;21.68;25.30
42169;BME280;27838;43.858;25.974;2024-03-23T10:17:51;100936.72;;;21.88;24.68
42169;BME280;27838;43.858;25.974;2024-03-23T10:20:20;100927.66;;;22.13;24.17
42169;BME280;27838;43.858;25.974;2024-03-23T10:22:48;100924.13;;;22.33;24.02
42169;BME280;27838;43.858;25.974;2024-03-23T10:25:15;100915.59;;;22.45;24.59
42169;BME280;27838;43.858;25.974;2024-03-23T10:27:41;100902.69;;;22.56;24.05
42169;BME280;27838;43.858;25.974;2024-03-23T10:30:15;100908.91;;;22.74;24.00
42169;BME280;27838;43.858;25.974;2024-03-23T10:32:41;100903.00;;;22.87;23.14
42169;BME280;27838;43.858;25.974;2024-03-23T10:35:18;100896.44;;;22.94;22.58
42169;BME280;27838;43.858;25.974;2024-03-23T10:37:45;100892.94;;;22.93;22.89
42169;BME280;27838;43.858;25.974;2024-03-23T10:40:12;100893.94;;;22.91;22.90
42169;BME280;27838;43.858;25.974;2024-03-23T10:42:39;100884.88;;;22.95;23.04
42169;BME280;27838;43.858;25.974;2024-03-23T10:45:07;100888.59;;;23.10;22.77
42169;BME280;27838;43.858;25.974;2024-03-23T10:47:37;100885.25;;;23.24;22.76
42169;BME280;27838;43.858;25.974;2024-03-23T10:50:04;100874.63;;;23.41;22.14
42169;BME280;27838;43.858;25.974;2024-03-23T10:52:32;100877.75;;;23.49;21.77
42169;BME280;27838;43.858;25.974;2024-03-23T10:55:01;100863.25;;;23.55;21.80
42169;BME280;27838;43.858;25.974;2024-03-23T11:00:07;100848.50;;;23.49;21.67
42169;BME280;27838;43.858;25.974;2024-03-23T11:02:34;100855.06;;;23.60;21.60
42169;BME280;27838;43.858;25.974;2024-03-23T11:05:00;100847.38;;;23.53;21.35
42169;BME280;27838;43.858;25.974;2024-03-23T11:09:53;100838.41;;;23.56;21.26
42169;BME280;27838;43.858;25.974;2024-03-23T11:14:47;100827.38;;;23.46;21.05
42169;BME280;27838;43.858;25.974;2024-03-23T11:17:21;100825.47;;;23.48;22.68
42169;BME280;27838;43.858;25.974;2024-03-23T11:20:04;100823.97;;;23.60;21.15
42169;BME280;27838;43.858;25.974;2024-03-23T11:22:46;100812.16;;;23.66;20.83
42169;BME280;27838;43.858;25.974;2024-03-23T11:25:18;100807.94;;;23.62;20.60
42169;BME280;27838;43.858;25.974;2024-03-23T11:27:46;100815.75;;;23.65;20.83
42169;BME280;27838;43.858;25.974;2024-03-23T11:30:21;100805.28;;;23.62;20.79
42169;BME280;27838;43.858;25.974;2024-03-23T11:32:48;100803.19;;;23.51;20.85
42169;BME280;27838;43.858;25.974;2024-03-23T11:35:37;100790.78;;;23.34;21.15
42169;BME280;27838;43.858;25.974;2024-03-23T11:38:12;100789.91;;;23.33;21.27
42169;BME280;27838;43.858;25.974;2024-03-23T11:40:43;100786.84;;;23.41;21.07
42169;BME280;27838;43.858;25.974;2024-03-23T11:43:12;100776.97;;;23.43;20.72
42169;BME280;27838;43.858;25.974;2024-03-23T11:45:44;100771.25;;;23.17;20.91
42169;BME280;27838;43.858;25.974;2024-03-23T11:48:14;100769.34;;;23.02;21.11
42169;BME280;27838;43.858;25.974;2024-03-23T11:50:45;100761.06;;;22.91;21.09
42169;BME280;27838;43.858;25.974;2024-03-23T11:55:49;100762.16;;;23.04;20.91
42169;BME280;27838;43.858;25.974;2024-03-23T11:58:16;100753.28;;;23.05;20.79
42169;BME280;27838;43.858;25.974;2024-03-23T12:01:00;100747.88;;;23.07;20.42
42169;BME280;27838;43.858;25.974;2024-03-23T12:03:27;100740.13;;;23.02;20.80
42169;BME280;27838;43.858;25.974;2024-03-23T12:05:55;100735.44;;;22.90;21.27
42169;BME280;27838;43.858;25.974;2024-03-23T12:08:23;100735.91;;;22.98;21.16
42169;BME280;27838;43.858;25.974;2024-03-23T12:11:08;100726.91;;;23.00;20.84
42169;BME280;27838;43.858;25.974;2024-03-23T12:13:34;100722.34;;;23.03;20.98
42169;BME280;27838;43.858;25.974;2024-03-23T12:16:11;100722.44;;;23.18;20.98
42169;BME280;27838;43.858;25.974;2024-03-23T12:18:38;100718.09;;;23.17;20.76
42169;BME280;27838;43.858;25.974;2024-03-23T12:21:05;100714.97;;;23.09;20.76
42169;BME280;27838;43.858;25.974;2024-03-23T12:23:30;100704.63;;;23.21;20.87
42169;BME280;27838;43.858;25.974;2024-03-23T12:25:57;100701.78;;;23.24;21.13
42169;BME280;27838;43.858;25.974;2024-03-23T12:28:23;100692.88;;;23.25;20.63
42169;BME280;27838;43.858;25.974;2024-03-23T12:30:51;100693.13;;;23.20;20.79
42169;BME280;27838;43.858;25.974;2024-03-23T12:33:17;100696.66;;;23.03;20.96
42169;BME280;27838;43.858;25.974;2024-03-23T12:35:44;100697.81;;;22.97;21.81
42169;BME280;27838;43.858;25.974;2024-03-23T12:38:10;100690.72;;;22.98;21.34
42169;BME280;27838;43.858;25.974;2024-03-23T12:40:36;100669.00;;;22.90;21.29
42169;BME280;27838;43.858;25.974;2024-03-23T12:43:02;100685.63;;;22.93;21.50
42169;BME280;27838;43.858;25.974;2024-03-23T12:45:29;100670.69;;;22.91;21.33
42169;BME280;27838;43.858;25.974;2024-03-23T12:47:54;100664.53;;;22.90;21.20
42169;BME280;27838;43.858;25.974;2024-03-23T12:50:21;100669.91;;;22.89;21.19
42169;BME280;27838;43.858;25.974;2024-03-23T12:52:47;100653.34;;;22.84;21.18
42169;BME280;27838;43.858;25.974;2024-03-23T12:55:14;100653.06;;;22.90;21.70
42169;BME280;27838;43.858;25.974;2024-03-23T12:57:40;100655.56;;;22.93;21.74
42169;BME280;27838;43.858;25.974;2024-03-23T13:00:07;100641.31;;;22.94;21.32
42169;BME280;27838;43.858;25.974;2024-03-23T13:02:35;100643.03;;;22.95;21.42
42169;BME280;27838;43.858;25.974;2024-03-23T13:05:03;100649.13;;;22.97;21.45
42169;BME280;27838;43.858;25.974;2024-03-23T13:07:28;100645.84;;;22.92;21.45
42169;BME280;27838;43.858;25.974;2024-03-23T13:09:55;100638.81;;;22.91;21.09
42169;BME280;27838;43.858;25.974;2024-03-23T13:12:22;100640.72;;;23.05;20.98
42169;BME280;27838;43.858;25.974;2024-03-23T13:14:49;100626.13;;;22.96;21.28
42169;BME280;27838;43.858;25.974;2024-03-23T13:17:15;100621.00;;;22.93;21.61
42169;BME280;27838;43.858;25.974;2024-03-23T13:19:41;100627.66;;;22.84;21.71
42169;BME280;27838;43.858;25.974;2024-03-23T13:22:07;100624.47;;;22.77;21.38
42169;BME280;27838;43.858;25.974;2024-03-23T13:24:37;100628.34;;;22.88;21.58
42169;BME280;27838;43.858;25.974;2024-03-23T13:27:03;100620.94;;;22.94;21.31
42169;BME280;27838;43.858;25.974;2024-03-23T13:29:30;100617.91;;;23.00;21.32
42169;BME280;27838;43.858;25.974;2024-03-23T13:31:56;100609.09;;;23.00;21.53
42169;BME280;27838;43.858;25.974;2024-03-23T13:34:23;100601.13;;;23.00;21.07
42169;BME280;27838;43.858;25.974;2024-03-23T13:36:48;100606.28;;;23.03;21.51
42169;BME280;27838;43.858;25.974;2024-03-23T13:39:15;100598.78;;;22.94;21.45
42169;BME280;27838;43.858;25.974;2024-03-23T13:41:44;100598.22;;;22.71;21.65
42169;BME280;27838;43.858;25.974;2024-03-23T13:44:12;100591.59;;;22.62;21.78
42169;BME280;27838;43.858;25.974;2024-03-23T13:46:39;100593.31;;;22.63;21.48
42169;BME280;27838;43.858;25.974;2024-03-23T13:49:12;100588.84;;;22.64;21.29